Weather History for Oconto, WI

Change the Weather History Date:

Tuesday, September 17, 2013

  Actual Average Record
Temperature  
Mean Temperature 48 °F -  
Max Temperature 65 °F 67 °F 71 °F (2014)
Min Temperature 32 °F 45 °F 32 °F (2013)
Degree Days  
Heating Degree Days 16    
Moisture  
Dew Point 45 °F    
Average Humidity 82    
Maximum Humidity 98    
Minimum Humidity 57    
Precipitation  
Precipitation 0.00 in - - ()
Sea Level Pressure  
Sea Level Pressure 30.27 in    
Wind  
Wind Speed 3 mph (SSE)    
Max Wind Speed 14 mph    
Max Gust Speed 17 mph    
Visibility 10 miles    
Events      
Averages and records for this station are not official NWS values.
T = Trace of Precipitation, MM = Missing Value Source: NWS Daily Summary

Daily Weather History Graph

Daily Weather History Graph

Search for Another Location

Airport:

Trip Planner

Search our weather history database for the weather conditions in past years. The results will help you decide how hot, cold, wet, or windy it might be!

Date:

Astronomy

Sep. 17, 2013 Rise Set
Actual Time 6:33 AM CDT 6:58 PM CDT
Civil Twilight 6:03 AM CDT 7:27 PM CDT
Nautical Twilight 5:28 AM CDT 8:02 PM CDT
Astronomical Twilight 4:53 AM CDT 8:37 PM CDT
Moon 5:47 PM CDT (9/17) 4:23 AM CDT (9/17)
Length of Visible Light 13h 23m
Length of Day
12h 25m
Waxing Gibbous, 96% of the Moon is Illuminated
Sep 17
Waxing Gibbous
Sep 19
Full
Sep 26
Last Quarter
Oct 4
New
Oct 11
First Quarter

Hourly Weather History & Observations

Time (CDT) Temp. Dew Point Humidity Pressure Visibility Wind Dir Wind Speed Gust Speed Precip Events Conditions
12:15 AM 36.5 °F 35.6 °F 97% 30.36 in 10.0 mi Calm Calm - N/A   Clear
12:35 AM 36.3 °F 35.6 °F 97% 30.37 in 10.0 mi Calm Calm - N/A   Clear
12:55 AM 35.1 °F 34.2 °F 97% 30.37 in 10.0 mi Calm Calm - N/A   Clear
1:15 AM 35.8 °F 34.7 °F 96% 30.37 in 10.0 mi Calm Calm - N/A   Clear
1:35 AM 35.8 °F 34.7 °F 96% 30.37 in 10.0 mi Calm Calm - N/A   Clear
1:55 AM 36.0 °F 35.2 °F 97% 30.37 in 10.0 mi Calm Calm - N/A   Clear
2:15 AM 35.6 °F 34.7 °F 97% 30.36 in 10.0 mi Calm Calm - N/A   Clear
2:35 AM 34.7 °F 33.3 °F 94% 30.36 in 10.0 mi Calm Calm - N/A   Clear
2:55 AM 35.6 °F 35.1 °F 98% 30.36 in 10.0 mi Calm Calm - N/A   Clear
3:15 AM 35.1 °F 34.0 °F 96% 30.36 in 10.0 mi Calm Calm - N/A   Clear
3:35 AM 34.2 °F 32.9 °F 95% 30.36 in 10.0 mi Calm Calm - N/A   Clear
3:55 AM 34.5 °F 33.8 °F 97% 30.35 in 10.0 mi Calm Calm - N/A   Scattered Clouds
4:15 AM 33.8 °F 32.5 °F 95% 30.35 in 10.0 mi Calm Calm - N/A   Scattered Clouds
4:35 AM 34.5 °F 33.8 °F 97% 30.35 in 10.0 mi Calm Calm - N/A   Clear
4:55 AM 34.2 °F 33.6 °F 98% 30.35 in 1.0 mi Calm Calm - N/A   Overcast
5:15 AM 33.3 °F 32.4 °F 96% 30.35 in 10.0 mi Calm Calm - N/A   Scattered Clouds
5:35 AM 33.4 °F 32.5 °F 96% 30.35 in 10.0 mi Calm Calm - N/A   Scattered Clouds
5:55 AM 33.8 °F 32.9 °F 96% 30.35 in 10.0 mi Calm Calm - N/A   Clear
6:15 AM 33.8 °F 32.9 °F 96% 30.36 in 10.0 mi Calm Calm - N/A   Clear
6:35 AM 32.5 °F 32.0 °F 98% 30.36 in 10.0 mi Calm Calm - N/A   Clear
6:55 AM 33.1 °F 32.0 °F 96% 30.36 in 10.0 mi Calm Calm - N/A   Clear
7:15 AM 34.5 °F 32.7 °F 93% 30.36 in 10.0 mi Calm Calm - N/A   Clear
7:35 AM 37.2 °F 36.7 °F 98% 30.36 in 10.0 mi Calm Calm - N/A   Clear
7:55 AM 41.0 °F 40.1 °F 97% 30.36 in 10.0 mi Calm Calm - N/A   Clear
8:15 AM 44.2 °F 42.8 °F 95% 30.35 in 10.0 mi Calm Calm - N/A   Clear
8:35 AM 46.4 °F 44.1 °F 92% 30.35 in 10.0 mi Calm Calm - N/A   Clear
8:55 AM 49.1 °F 45.3 °F 87% 30.35 in 10.0 mi Calm Calm - N/A   Clear
9:15 AM 51.8 °F 46.8 °F 83% 30.35 in 10.0 mi Calm Calm - N/A   Clear
9:35 AM 54.3 °F 48.6 °F 81% 30.35 in 10.0 mi Calm Calm - N/A   Clear
9:55 AM 56.1 °F 48.9 °F 77% 30.34 in 10.0 mi SE 4.6 mph - N/A   Clear
10:15 AM 57.4 °F 49.6 °F 75% 30.34 in 10.0 mi SE 4.6 mph - N/A   Clear
10:35 AM 59.4 °F 50.4 °F 72% 30.33 in 10.0 mi East 3.5 mph - N/A   Clear
10:55 AM 59.5 °F 51.3 °F 74% 30.32 in 10.0 mi SE 6.9 mph - N/A   Scattered Clouds
11:15 AM 60.4 °F 50.9 °F 71% 30.32 in 10.0 mi South 6.9 mph - N/A   Scattered Clouds
11:35 AM 61.9 °F 50.4 °F 66% 30.31 in 10.0 mi South 5.8 mph - N/A   Mostly Cloudy
11:55 AM 61.7 °F 50.0 °F 65% 30.31 in 10.0 mi South 6.9 mph - N/A   Clear
12:15 PM 63.1 °F 50.0 °F 62% 30.30 in 10.0 mi SSE 9.2 mph - N/A   Clear
12:35 PM 63.7 °F 49.6 °F 60% 30.29 in 10.0 mi SE 6.9 mph - N/A   Scattered Clouds
12:55 PM 63.9 °F 49.5 °F 59% 30.28 in 10.0 mi SSW 9.2 mph - N/A   Scattered Clouds
1:15 PM 64.4 °F 49.5 °F 58% 30.27 in 10.0 mi SSE 9.2 mph - N/A   Clear
1:35 PM 64.0 °F 49.1 °F 58% 30.26 in 10.0 mi SE 9.2 mph - N/A   Clear
1:55 PM 64.6 °F 48.9 °F 57% 30.25 in 10.0 mi South 5.8 mph - N/A   Clear
2:15 PM 65.1 °F 49.6 °F 57% 30.24 in 10.0 mi SE 5.8 mph - N/A   Clear
2:35 PM 65.3 °F 51.1 °F 60% 30.23 in 10.0 mi SSE 8.1 mph - N/A   Clear
2:55 PM 65.1 °F 52.0 °F 62% 30.22 in 10.0 mi ESE 9.2 mph - N/A   Clear
3:15 PM 64.8 °F 52.9 °F 65% 30.21 in 10.0 mi SSE 10.4 mph - N/A   Mostly Cloudy
3:35 PM 63.7 °F 53.1 °F 68% 30.20 in 10.0 mi SSE 11.5 mph 16.1 mph N/A   Scattered Clouds
3:55 PM 64.2 °F 53.6 °F 68% 30.20 in 10.0 mi SSE 9.2 mph 17.3 mph N/A   Scattered Clouds
4:15 PM 63.9 °F 53.8 °F 70% 30.19 in 10.0 mi SSE 10.4 mph - N/A   Clear
4:35 PM 64.2 °F 53.1 °F 67% 30.18 in 10.0 mi SSE 13.8 mph - N/A   Clear
4:55 PM 62.2 °F 53.2 °F 72% 30.18 in 10.0 mi SSE 9.2 mph - N/A   Clear
5:15 PM 61.2 °F 53.1 °F 75% 30.18 in 10.0 mi SSE 9.2 mph - N/A   Clear
5:35 PM 60.4 °F 53.1 °F 77% 30.17 in 10.0 mi SE 8.1 mph - N/A   Scattered Clouds
5:55 PM 60.1 °F 53.1 °F 78% 30.17 in 10.0 mi SSE 9.2 mph - N/A   Mostly Cloudy
6:15 PM 60.3 °F 52.0 °F 74% 30.16 in 10.0 mi SSE 10.4 mph - N/A   Mostly Cloudy
6:35 PM 59.7 °F 52.2 °F 76% 30.16 in 10.0 mi SSE 9.2 mph - N/A   Scattered Clouds
6:55 PM 59.0 °F 51.8 °F 77% 30.15 in 10.0 mi SSE 6.9 mph - N/A   Scattered Clouds
7:15 PM 58.5 °F 51.4 °F 77% 30.15 in 10.0 mi SSE 6.9 mph - N/A   Clear
7:35 PM 58.1 °F 51.4 °F 78% 30.15 in 10.0 mi SSE 8.1 mph - N/A   Clear
7:55 PM 58.1 °F 51.8 °F 80% 30.15 in 10.0 mi SSE 6.9 mph - N/A   Clear
8:15 PM 58.1 °F 52.0 °F 80% 30.15 in 10.0 mi SSE 8.1 mph - N/A   Clear
8:35 PM 58.1 °F 52.2 °F 81% 30.15 in 10.0 mi SSE 8.1 mph - N/A   Clear
8:55 PM 58.1 °F 52.3 °F 81% 30.15 in 10.0 mi South 8.1 mph - N/A   Clear
9:15 PM 58.1 °F 52.7 °F 82% 30.14 in 10.0 mi SSE 8.1 mph - N/A   Clear
9:35 PM 57.7 °F 52.7 °F 83% 30.14 in 10.0 mi South 5.8 mph - N/A   Clear
9:55 PM 58.1 °F 52.7 °F 82% 30.14 in 10.0 mi SSE 5.8 mph - N/A   Clear
10:15 PM 58.1 °F 52.7 °F 82% 30.14 in 10.0 mi South 5.8 mph - N/A   Clear
10:35 PM 58.1 °F 52.7 °F 82% 30.14 in 10.0 mi South 5.8 mph - N/A   Clear
10:55 PM 58.1 °F 52.7 °F 82% 30.13 in 10.0 mi South 9.2 mph - N/A   Clear
11:15 PM 57.7 °F 52.7 °F 83% 30.12 in 10.0 mi South 4.6 mph - N/A   Clear
11:35 PM 57.7 °F 52.7 °F 83% 30.12 in 10.0 mi South 5.8 mph - N/A   Clear
11:55 PM 57.9 °F 52.9 °F 83% 30.11 in 10.0 mi South 3.5 mph - N/A   Clear